createdAt,value
2023-07-30T00:00:55.946Z,8.10
2023-07-30T00:03:40.154Z,8.52
2023-07-30T00:06:07.995Z,7.95
2023-07-30T00:08:35.580Z,9.23
2023-07-30T00:11:03.352Z,8.60
2023-07-30T00:13:30.786Z,9.45
2023-07-30T00:15:58.503Z,9.05
2023-07-30T00:18:25.985Z,9.55
2023-07-30T00:20:53.607Z,9.15
2023-07-30T00:23:20.994Z,8.80
2023-07-30T00:25:48.756Z,8.73
2023-07-30T00:28:16.304Z,8.48
2023-07-30T00:30:44.254Z,8.25
2023-07-30T00:33:11.850Z,8.73
2023-07-30T00:35:39.602Z,8.02
2023-07-30T00:38:07.085Z,8.30
2023-07-30T00:40:40.332Z,8.75
2023-07-30T00:43:07.973Z,9.27
2023-07-30T00:45:36.800Z,8.52
2023-07-30T00:48:04.344Z,9.20
2023-07-30T00:50:34.050Z,8.80
2023-07-30T00:53:01.675Z,9.48
2023-07-30T00:55:29.517Z,9.43
2023-07-30T00:57:58.964Z,10.63
2023-07-30T01:00:27.969Z,11.00
2023-07-30T01:02:55.523Z,10.43
2023-07-30T01:05:23.586Z,10.95
2023-07-30T01:07:51.210Z,10.68
2023-07-30T01:10:19.423Z,11.48
2023-07-30T01:12:47.308Z,11.07
2023-07-30T01:15:15.186Z,10.85
2023-07-30T01:17:42.653Z,10.35
2023-07-30T01:20:12.948Z,11.27
2023-07-30T01:22:40.411Z,11.32
2023-07-30T01:25:08.478Z,10.10
2023-07-30T01:27:41.588Z,11.35
2023-07-30T01:30:20.574Z,10.05
2023-07-30T01:32:51.532Z,10.57
2023-07-30T01:35:27.714Z,10.00
2023-07-30T01:37:55.847Z,10.57
2023-07-30T01:40:23.785Z,11.35
2023-07-30T01:42:51.542Z,9.77
2023-07-30T01:45:19.708Z,11.25
2023-07-30T01:47:47.229Z,11.57
2023-07-30T01:50:15.031Z,10.88
2023-07-30T01:52:42.773Z,12.10
2023-07-30T01:55:10.811Z,11.38
2023-07-30T01:57:38.170Z,11.45
2023-07-30T02:00:06.824Z,11.70
2023-07-30T02:02:36.646Z,12.30
2023-07-30T02:05:04.909Z,14.18
2023-07-30T02:07:32.707Z,13.90
2023-07-30T02:10:01.432Z,15.05
2023-07-30T02:12:29.639Z,16.50
2023-07-30T02:14:57.254Z,18.15
2023-07-30T02:17:24.714Z,20.48
2023-07-30T02:19:52.398Z,22.27
2023-07-30T02:22:19.857Z,21.88
2023-07-30T02:24:47.647Z,27.98
2023-07-30T02:27:15.005Z,28.75
2023-07-30T02:29:43.885Z,27.77
2023-07-30T02:32:11.554Z,29.50
2023-07-30T02:34:39.336Z,28.98
2023-07-30T02:37:06.989Z,29.27
2023-07-30T02:39:34.568Z,29.83
2023-07-30T02:42:02.015Z,32.55
2023-07-30T02:44:29.744Z,32.42
2023-07-30T02:46:57.194Z,31.27
2023-07-30T02:49:25.062Z,31.88
2023-07-30T02:51:52.498Z,30.52
2023-07-30T02:54:23.344Z,29.65
2023-07-30T02:56:50.753Z,31.33
2023-07-30T02:59:18.428Z,30.63
2023-07-30T03:01:45.924Z,32.38
2023-07-30T03:04:13.690Z,30.48
2023-07-30T03:06:41.152Z,30.77
2023-07-30T03:09:08.840Z,30.55
2023-07-30T03:11:36.589Z,31.08
2023-07-30T03:14:04.659Z,33.00
2023-07-30T03:16:32.293Z,31.67
2023-07-30T03:19:00.021Z,32.00
2023-07-30T03:21:27.763Z,33.58
2023-07-30T03:23:55.519Z,33.90
2023-07-30T03:26:23.407Z,33.83
2023-07-30T03:28:51.402Z,33.85
2023-07-30T03:31:18.824Z,33.33
2023-07-30T03:33:47.246Z,33.97
2023-07-30T03:36:14.996Z,36.53
2023-07-30T03:38:43.860Z,36.40
2023-07-30T03:41:14.380Z,39.53
2023-07-30T03:43:42.195Z,39.40
2023-07-30T03:46:09.747Z,38.55
2023-07-30T03:48:39.638Z,40.45
2023-07-30T03:51:08.516Z,38.17
2023-07-30T03:53:36.202Z,38.00
2023-07-30T03:56:03.716Z,38.30
2023-07-30T03:58:31.984Z,36.00
2023-07-30T04:00:59.712Z,36.38
2023-07-30T04:03:27.495Z,35.28
2023-07-30T04:05:55.472Z,36.10
2023-07-30T04:08:23.149Z,35.80
2023-07-30T04:10:51.021Z,35.38
2023-07-30T04:13:20.992Z,35.17
2023-07-30T04:15:49.579Z,34.85
2023-07-30T04:18:17.062Z,35.08
2023-07-30T04:20:44.914Z,37.13
2023-07-30T04:23:12.556Z,36.85
2023-07-30T04:25:40.224Z,36.65
2023-07-30T04:28:07.667Z,35.55
2023-07-30T04:30:36.074Z,35.35
2023-07-30T04:33:03.668Z,35.15
2023-07-30T04:35:31.889Z,36.00
2023-07-30T04:37:59.468Z,36.17
2023-07-30T04:40:27.792Z,35.58
2023-07-30T04:42:55.166Z,32.72
2023-07-30T04:45:23.442Z,31.98
2023-07-30T04:47:55.038Z,32.53
2023-07-30T04:50:23.026Z,37.55
2023-07-30T04:52:50.485Z,40.08
2023-07-30T04:55:18.411Z,42.05
2023-07-30T04:57:46.600Z,46.05
2023-07-30T05:00:14.933Z,47.97
2023-07-30T05:02:42.927Z,44.33
2023-07-30T05:05:11.303Z,43.60
2023-07-30T05:07:39.023Z,46.78
2023-07-30T05:10:09.126Z,47.13
2023-07-30T05:12:36.700Z,45.58
2023-07-30T05:15:04.768Z,44.88
2023-07-30T05:17:32.354Z,43.70
2023-07-30T05:20:00.128Z,44.53
2023-07-30T05:22:28.042Z,42.65
2023-07-30T05:24:55.743Z,42.35
2023-07-30T05:27:23.579Z,42.92
2023-07-30T05:29:51.313Z,40.20
2023-07-30T05:32:19.006Z,43.47
2023-07-30T05:34:46.716Z,42.42
2023-07-30T05:37:14.171Z,41.03
2023-07-30T05:39:41.923Z,41.65
2023-07-30T05:42:09.355Z,40.72
2023-07-30T05:44:36.994Z,41.40
2023-07-30T05:47:04.572Z,38.97
2023-07-30T05:49:32.233Z,39.28
2023-07-30T05:51:59.707Z,39.35
2023-07-30T05:54:27.432Z,40.00
2023-07-30T05:56:55.094Z,37.60
2023-07-30T05:59:23.776Z,35.15
2023-07-30T06:01:51.392Z,35.10
2023-07-30T06:04:19.302Z,35.78
2023-07-30T06:06:47.016Z,35.08
2023-07-30T06:09:15.412Z,35.10
2023-07-30T06:11:42.882Z,34.22
2023-07-30T06:14:10.633Z,32.53
2023-07-30T06:16:38.327Z,33.38
2023-07-30T06:19:06.183Z,32.63
2023-07-30T06:21:33.927Z,31.05
2023-07-30T06:24:01.908Z,29.92
2023-07-30T06:26:29.443Z,26.48
2023-07-30T06:28:58.042Z,25.63
2023-07-30T06:31:25.729Z,25.95
2023-07-30T06:33:53.707Z,23.95
2023-07-30T06:36:21.128Z,23.88
2023-07-30T06:38:49.056Z,21.77
2023-07-30T06:41:17.069Z,21.95
2023-07-30T06:43:44.897Z,21.70
2023-07-30T06:46:12.748Z,21.60
2023-07-30T06:48:40.647Z,20.48
2023-07-30T06:51:08.982Z,21.00
2023-07-30T06:53:36.782Z,23.98
2023-07-30T06:56:04.545Z,24.40
2023-07-30T06:58:32.453Z,24.48
2023-07-30T07:00:59.947Z,23.42
2023-07-30T07:03:27.860Z,23.73
2023-07-30T07:05:59.170Z,23.73
2023-07-30T07:08:28.484Z,23.50
2023-07-30T07:10:55.929Z,23.83
2023-07-30T07:13:23.747Z,22.23
2023-07-30T07:15:51.196Z,22.83
2023-07-30T07:18:18.910Z,21.20
2023-07-30T07:20:46.428Z,22.00
2023-07-30T07:23:14.337Z,20.88
2023-07-30T07:25:41.724Z,18.92
2023-07-30T07:28:09.981Z,16.08
2023-07-30T07:30:38.229Z,16.65
2023-07-30T07:33:12.772Z,16.88
2023-07-30T07:35:41.349Z,15.93
2023-07-30T07:38:09.547Z,15.48
2023-07-30T07:40:43.516Z,15.82
2023-07-30T07:43:11.284Z,14.02
2023-07-30T07:45:39.899Z,12.60
2023-07-30T07:48:07.661Z,10.93
2023-07-30T07:50:35.330Z,11.25
2023-07-30T07:53:03.147Z,10.50
2023-07-30T07:55:30.800Z,9.73
2023-07-30T07:57:58.871Z,9.15
2023-07-30T08:00:26.521Z,8.70
2023-07-30T08:02:54.422Z,8.95
2023-07-30T08:05:22.208Z,9.40
2023-07-30T08:07:50.328Z,9.20
2023-07-30T08:10:17.900Z,10.95
2023-07-30T08:12:49.770Z,11.20
2023-07-30T08:15:18.310Z,11.30
2023-07-30T08:17:46.366Z,9.02
2023-07-30T08:20:13.881Z,9.20
2023-07-30T08:22:41.534Z,8.65
2023-07-30T08:25:09.332Z,7.85
2023-07-30T08:27:37.328Z,9.57
2023-07-30T08:30:05.816Z,9.20
2023-07-30T08:32:35.103Z,9.07
2023-07-30T08:35:05.601Z,7.88
2023-07-30T08:37:33.780Z,7.22
2023-07-30T08:40:01.358Z,7.20
2023-07-30T08:42:31.938Z,8.05
2023-07-30T08:45:00.516Z,7.75
2023-07-30T08:47:28.501Z,7.57
2023-07-30T08:49:56.214Z,8.38
2023-07-30T08:52:25.310Z,7.05
2023-07-30T08:54:53.765Z,6.85
2023-07-30T08:57:22.704Z,6.53
2023-07-30T09:00:03.447Z,7.47
2023-07-30T09:02:40.287Z,7.18
2023-07-30T09:05:08.201Z,7.60
2023-07-30T09:07:36.810Z,6.82
2023-07-30T09:10:04.731Z,6.10
2023-07-30T09:12:34.212Z,6.82
2023-07-30T09:15:04.457Z,5.85
2023-07-30T09:17:32.345Z,6.43
2023-07-30T09:20:06.597Z,6.15
2023-07-30T09:22:42.033Z,6.47
2023-07-30T09:25:10.703Z,5.88
2023-07-30T09:27:38.918Z,5.85
2023-07-30T09:30:07.735Z,6.60
2023-07-30T09:32:36.467Z,5.95
2023-07-30T09:35:11.589Z,5.35
2023-07-30T09:37:41.562Z,5.28
2023-07-30T09:40:14.275Z,6.72
2023-07-30T09:42:48.623Z,5.93
2023-07-30T09:45:23.768Z,5.63
2023-07-30T09:47:58.692Z,5.18
2023-07-30T09:50:26.458Z,5.90
2023-07-30T09:52:55.563Z,5.85
2023-07-30T09:55:23.189Z,5.78
2023-07-30T09:57:51.151Z,4.47
2023-07-30T10:00:18.686Z,4.63
2023-07-30T10:02:48.850Z,5.25
2023-07-30T10:05:19.930Z,4.82
2023-07-30T10:07:59.206Z,4.95
2023-07-30T10:10:29.514Z,4.40
2023-07-30T10:13:09.362Z,3.75
2023-07-30T10:15:39.212Z,4.30
2023-07-30T10:18:07.182Z,4.65
2023-07-30T10:20:34.881Z,3.88
2023-07-30T10:23:02.796Z,5.32
2023-07-30T10:25:32.178Z,3.92
2023-07-30T10:28:00.614Z,3.80
2023-07-30T10:30:33.441Z,3.65
2023-07-30T10:33:06.197Z,4.68
2023-07-30T10:35:36.329Z,4.25
2023-07-30T10:38:26.436Z,3.65
2023-07-30T10:41:09.376Z,3.20
2023-07-30T10:43:38.134Z,3.47
2023-07-30T10:46:06.378Z,3.35
2023-07-30T10:48:41.879Z,3.40
2023-07-30T10:51:17.505Z,3.65
2023-07-30T10:53:51.282Z,2.47
2023-07-30T10:56:22.918Z,2.50
2023-07-30T10:58:55.160Z,2.70
2023-07-30T11:01:26.867Z,2.45
2023-07-30T11:03:55.036Z,2.65
2023-07-30T11:06:24.242Z,2.58
2023-07-30T11:08:52.198Z,2.22
2023-07-30T11:11:20.042Z,2.45
2023-07-30T11:13:48.908Z,2.20
2023-07-30T11:16:17.705Z,1.55
2023-07-30T11:18:45.562Z,1.83
2023-07-30T11:21:16.067Z,1.98
2023-07-30T11:23:45.738Z,1.63
2023-07-30T11:26:19.164Z,1.52
2023-07-30T11:28:47.566Z,1.73
2023-07-30T11:31:18.755Z,1.42
2023-07-30T11:33:48.566Z,0.95
2023-07-30T11:36:20.020Z,1.02
2023-07-30T11:38:48.200Z,1.13
2023-07-30T11:41:16.889Z,1.25
2023-07-30T11:43:46.366Z,1.40
2023-07-30T11:46:15.518Z,1.17
2023-07-30T11:48:45.750Z,1.65
2023-07-30T11:51:27.282Z,1.67
2023-07-30T11:53:56.569Z,1.50
2023-07-30T11:56:29.862Z,1.20
2023-07-30T11:59:07.491Z,1.13
2023-07-30T12:01:38.148Z,0.85
2023-07-30T12:04:07.523Z,0.93
2023-07-30T12:06:49.520Z,0.88
2023-07-30T12:09:27.568Z,0.77
2023-07-30T12:12:00.771Z,0.70
2023-07-30T12:14:51.485Z,0.77
2023-07-30T12:17:19.516Z,0.80
2023-07-30T12:19:47.751Z,1.35
2023-07-30T12:22:16.756Z,0.98
2023-07-30T12:24:44.311Z,0.93
2023-07-30T12:27:12.156Z,0.70
2023-07-30T12:29:39.606Z,0.90
2023-07-30T12:32:07.955Z,0.80
2023-07-30T12:34:36.146Z,1.00
2023-07-30T12:37:04.130Z,0.70
2023-07-30T12:39:31.783Z,0.80
2023-07-30T12:41:59.682Z,0.88
2023-07-30T12:44:27.482Z,1.20
2023-07-30T12:46:55.379Z,0.60
2023-07-30T12:49:23.737Z,0.80
2023-07-30T12:51:51.524Z,0.75
2023-07-30T12:54:19.075Z,0.90
2023-07-30T12:56:46.943Z,0.60
2023-07-30T12:59:14.429Z,0.50
2023-07-30T13:01:45.195Z,0.90
2023-07-30T13:04:14.770Z,0.70
2023-07-30T13:06:43.074Z,0.70
2023-07-30T13:09:10.618Z,0.82
2023-07-30T13:11:38.665Z,0.70
2023-07-30T13:14:06.603Z,0.68
2023-07-30T13:16:34.158Z,0.82
2023-07-30T13:19:02.010Z,0.50
2023-07-30T13:21:29.493Z,0.90
2023-07-30T13:23:57.565Z,0.50
2023-07-30T13:26:25.259Z,0.80
2023-07-30T13:28:52.991Z,0.47
2023-07-30T13:31:20.958Z,0.85
2023-07-30T13:33:49.336Z,0.90
2023-07-30T13:36:16.727Z,0.57
2023-07-30T13:38:44.869Z,1.00
2023-07-30T13:41:12.455Z,0.50
2023-07-30T13:43:42.345Z,0.60
2023-07-30T13:46:10.278Z,0.88
2023-07-30T13:48:38.298Z,0.93
2023-07-30T13:51:05.864Z,0.77
2023-07-30T13:53:36.052Z,0.70
2023-07-30T13:56:03.765Z,0.63
2023-07-30T13:58:31.733Z,0.70
2023-07-30T14:00:59.256Z,0.52
2023-07-30T14:03:27.076Z,0.70
2023-07-30T14:05:54.815Z,0.73
2023-07-30T14:08:22.490Z,0.77
2023-07-30T14:10:50.185Z,0.65
2023-07-30T14:13:17.962Z,0.55
2023-07-30T14:15:45.573Z,0.50
2023-07-30T14:18:13.447Z,0.60
2023-07-30T14:20:41.189Z,0.65
2023-07-30T14:23:09.049Z,0.57
2023-07-30T14:25:36.628Z,0.80
2023-07-30T14:28:04.542Z,0.90
2023-07-30T14:30:32.746Z,0.70
2023-07-30T14:33:03.740Z,0.80
2023-07-30T14:35:31.528Z,0.75
2023-07-30T14:37:59.188Z,0.85
2023-07-30T14:40:26.615Z,0.50
2023-07-30T14:42:54.529Z,0.70
2023-07-30T14:45:22.247Z,1.05
2023-07-30T14:47:50.306Z,0.50
2023-07-30T14:50:18.268Z,0.70
2023-07-30T14:52:47.965Z,0.75
2023-07-30T14:55:15.945Z,0.40
2023-07-30T14:57:43.910Z,0.88
2023-07-30T15:00:14.259Z,0.82
2023-07-30T15:02:42.529Z,0.80
2023-07-30T15:05:10.133Z,0.77
2023-07-30T15:07:38.305Z,0.90
2023-07-30T15:10:06.661Z,0.60
2023-07-30T15:12:34.875Z,1.50
2023-07-30T15:15:02.959Z,1.17
2023-07-30T15:17:31.842Z,1.00
2023-07-30T15:20:01.000Z,0.93
2023-07-30T15:22:28.785Z,0.80
2023-07-30T15:24:56.352Z,0.60
2023-07-30T15:27:24.345Z,1.00
2023-07-30T15:29:51.922Z,0.63
2023-07-30T15:32:19.704Z,0.80
2023-07-30T15:34:47.187Z,0.63
2023-07-30T15:37:15.335Z,0.80
2023-07-30T15:39:42.955Z,0.77
2023-07-30T15:42:10.827Z,0.85
2023-07-30T15:44:40.665Z,0.50
2023-07-30T15:47:08.678Z,0.65
2023-07-30T15:49:36.922Z,0.60
2023-07-30T15:52:05.312Z,0.60
2023-07-30T15:54:34.573Z,0.50
2023-07-30T15:57:02.683Z,0.50
2023-07-30T15:59:30.524Z,0.50
2023-07-30T16:01:58.501Z,0.60
2023-07-30T16:04:26.487Z,0.63
2023-07-30T16:06:56.694Z,0.70
2023-07-30T16:09:24.383Z,0.40
2023-07-30T16:11:52.282Z,0.43
2023-07-30T16:14:21.323Z,0.40
2023-07-30T16:16:50.142Z,0.60
2023-07-30T16:19:19.140Z,0.63
2023-07-30T16:21:49.913Z,0.77
2023-07-30T16:24:17.375Z,0.67
2023-07-30T16:26:46.405Z,0.93
2023-07-30T16:29:14.181Z,0.60
2023-07-30T16:31:42.582Z,0.50
2023-07-30T16:34:10.216Z,0.55
2023-07-30T16:36:39.708Z,0.85
2023-07-30T16:39:08.011Z,0.95
2023-07-30T16:41:36.116Z,0.77
2023-07-30T16:44:03.664Z,0.70
2023-07-30T16:46:31.691Z,0.77
2023-07-30T16:48:59.831Z,0.63
2023-07-30T16:51:27.578Z,1.02
2023-07-30T16:53:56.900Z,0.70
2023-07-30T16:56:41.809Z,0.75
2023-07-30T16:59:26.621Z,0.77
2023-07-30T17:01:54.612Z,0.98
2023-07-30T17:04:22.546Z,0.88
2023-07-30T17:06:52.439Z,1.10
2023-07-30T17:09:20.470Z,0.80
2023-07-30T17:11:48.350Z,0.68
2023-07-30T17:14:15.875Z,0.93
2023-07-30T17:16:44.564Z,1.00
2023-07-30T17:19:12.964Z,0.98
2023-07-30T17:21:40.863Z,0.90
2023-07-30T17:24:08.700Z,1.00
2023-07-30T17:26:36.988Z,0.90
2023-07-30T17:29:05.120Z,1.05
2023-07-30T17:31:33.285Z,1.38
2023-07-30T17:34:00.976Z,0.93
2023-07-30T17:36:29.332Z,1.02
2023-07-30T17:38:56.916Z,0.95
2023-07-30T17:41:25.342Z,1.30
2023-07-30T17:43:52.875Z,1.17
2023-07-30T17:46:22.301Z,0.95
2023-07-30T17:48:50.398Z,0.98
2023-07-30T17:51:19.455Z,1.10
2023-07-30T17:53:48.164Z,1.17
2023-07-30T17:56:18.055Z,0.90
2023-07-30T17:58:45.476Z,0.93
2023-07-30T18:01:13.594Z,1.00
2023-07-30T18:03:41.014Z,1.40
2023-07-30T18:06:09.318Z,0.90
2023-07-30T18:08:36.979Z,1.17
2023-07-30T18:11:04.948Z,0.73
2023-07-30T18:13:32.748Z,0.60
2023-07-30T18:16:00.445Z,0.60
2023-07-30T18:18:28.062Z,0.73
2023-07-30T18:20:55.776Z,0.50
2023-07-30T18:23:23.303Z,0.60
2023-07-30T18:25:51.256Z,0.88
2023-07-30T18:28:18.764Z,0.70
2023-07-30T18:30:46.771Z,0.70
2023-07-30T18:33:15.621Z,0.47
2023-07-30T18:35:43.634Z,0.50
2023-07-30T18:38:11.445Z,1.20
2023-07-30T18:40:39.483Z,0.35
2023-07-30T18:43:06.968Z,0.52
2023-07-30T18:45:35.810Z,0.57
2023-07-30T18:48:04.556Z,0.70
2023-07-30T18:50:33.024Z,0.73
2023-07-30T18:53:02.053Z,0.50
2023-07-30T18:55:29.971Z,0.35
2023-07-30T18:57:57.408Z,0.80
2023-07-30T19:00:25.272Z,0.57
2023-07-30T19:02:53.172Z,0.57
2023-07-30T19:05:21.331Z,0.60
2023-07-30T19:07:48.798Z,0.60
2023-07-30T19:10:16.596Z,0.60
2023-07-30T19:12:44.196Z,0.70
2023-07-30T19:15:12.374Z,0.70
2023-07-30T19:17:39.963Z,0.77
2023-07-30T19:20:10.999Z,1.67
2023-07-30T19:22:38.791Z,1.27
2023-07-30T19:25:07.429Z,1.17
2023-07-30T19:27:35.109Z,0.80
2023-07-30T19:30:02.860Z,0.70
2023-07-30T19:32:31.320Z,0.90
2023-07-30T19:34:59.267Z,1.42
2023-07-30T19:37:26.694Z,1.15
2023-07-30T19:39:55.462Z,0.90
2023-07-30T19:42:23.348Z,0.90
2023-07-30T19:44:51.308Z,0.93
2023-07-30T19:47:23.751Z,0.70
2023-07-30T19:49:52.355Z,0.80
2023-07-30T19:52:20.837Z,1.08
2023-07-30T19:54:51.088Z,0.77
2023-07-30T19:57:18.777Z,1.20
2023-07-30T19:59:46.796Z,0.88
2023-07-30T20:02:14.495Z,0.90
2023-07-30T20:04:42.716Z,0.95
2023-07-30T20:07:11.044Z,1.02
2023-07-30T20:09:38.758Z,0.90
2023-07-30T20:12:07.288Z,0.82
2023-07-30T20:14:35.801Z,0.88
2023-07-30T20:17:03.990Z,0.73
2023-07-30T20:19:32.618Z,2.00
2023-07-30T20:22:00.033Z,2.40
2023-07-30T20:24:29.293Z,1.58
2023-07-30T20:26:57.645Z,1.92
2023-07-30T20:29:26.474Z,1.30
2023-07-30T20:31:54.565Z,1.08
2023-07-30T20:34:22.740Z,0.88
2023-07-30T20:36:50.184Z,1.05
2023-07-30T20:39:18.217Z,1.40
2023-07-30T20:41:46.155Z,1.95
2023-07-30T20:44:14.217Z,2.30
2023-07-30T20:46:41.845Z,3.35
2023-07-30T20:49:10.293Z,7.88
2023-07-30T20:51:38.303Z,4.78
2023-07-30T20:54:06.417Z,7.80
2023-07-30T20:56:34.809Z,1.40
2023-07-30T20:59:03.551Z,2.72
2023-07-30T21:01:31.900Z,0.98
2023-07-30T21:04:00.500Z,1.30
2023-07-30T21:06:29.165Z,1.90
2023-07-30T21:08:57.678Z,0.80
2023-07-30T21:11:25.908Z,1.30
2023-07-30T21:13:53.796Z,1.20
2023-07-30T21:16:21.507Z,1.02
2023-07-30T21:18:49.526Z,1.35
2023-07-30T21:21:17.175Z,1.15
2023-07-30T21:23:45.095Z,1.33
2023-07-30T21:26:12.851Z,1.23
2023-07-30T21:28:41.393Z,1.13
2023-07-30T21:31:10.468Z,1.20
2023-07-30T21:33:38.418Z,1.40
2023-07-30T21:36:06.597Z,1.42
2023-07-30T21:38:35.594Z,1.20
2023-07-30T21:41:04.306Z,1.35
2023-07-30T21:43:32.369Z,1.27
2023-07-30T21:46:01.633Z,2.25
2023-07-30T21:48:29.692Z,1.20
2023-07-30T21:51:04.817Z,1.20
2023-07-30T21:53:33.040Z,1.20
2023-07-30T21:56:02.752Z,1.80
2023-07-30T21:58:31.013Z,1.67
2023-07-30T22:00:59.903Z,1.30
2023-07-30T22:03:29.938Z,1.30
2023-07-30T22:05:57.774Z,1.25
2023-07-30T22:08:25.720Z,1.20
2023-07-30T22:10:53.656Z,1.23
2023-07-30T22:13:21.649Z,1.02
2023-07-30T22:15:50.254Z,1.17
2023-07-30T22:18:18.817Z,1.75
2023-07-30T22:20:46.507Z,1.77
2023-07-30T22:23:14.724Z,1.77
2023-07-30T22:25:42.617Z,1.45
2023-07-30T22:28:10.836Z,1.33
2023-07-30T22:30:41.786Z,1.70
2023-07-30T22:33:10.305Z,1.20
2023-07-30T22:35:38.100Z,1.55
2023-07-30T22:38:06.134Z,1.05
2023-07-30T22:40:33.996Z,3.08
2023-07-30T22:43:02.335Z,4.72
2023-07-30T22:45:29.986Z,5.40
2023-07-30T22:47:58.069Z,4.80
2023-07-30T22:50:26.258Z,2.30
2023-07-30T22:52:54.388Z,1.70
2023-07-30T22:55:22.201Z,1.88
2023-07-30T22:57:50.781Z,1.60
2023-07-30T23:00:18.513Z,1.80
2023-07-30T23:02:47.001Z,1.77
2023-07-30T23:05:14.641Z,1.58
2023-07-30T23:07:43.191Z,1.45
2023-07-30T23:10:11.124Z,4.85
2023-07-30T23:12:38.930Z,3.97
2023-07-30T23:15:08.014Z,3.45
2023-07-30T23:17:35.923Z,2.72
2023-07-30T23:20:03.748Z,2.30
2023-07-30T23:22:35.024Z,2.00
2023-07-30T23:25:02.689Z,3.13
2023-07-30T23:27:32.184Z,3.00
2023-07-30T23:30:00.419Z,1.50
2023-07-30T23:32:28.804Z,2.15
2023-07-30T23:34:56.613Z,1.83
2023-07-30T23:37:25.179Z,2.17
2023-07-30T23:39:56.069Z,1.80
2023-07-30T23:42:24.588Z,2.25
2023-07-30T23:44:55.152Z,2.10
2023-07-30T23:47:23.399Z,2.25
2023-07-30T23:49:51.204Z,2.00
2023-07-30T23:52:19.165Z,2.38
2023-07-30T23:54:46.964Z,2.03
2023-07-30T23:57:15.572Z,2.28
2023-07-30T23:59:43.446Z,2.72
